Latest Weather Observations for Samuel Hill

IDQ60801

Issued at 11:31 pm EST Sunday 21 July 2019 (issued every 10 minutes, with the page automatically refreshed every 10 minutes)

About weather observations | Map of weather stations | Latest weather observations for QLD | Other Formats
Station Details ID: 033308 Name: SAMUEL HILL AERO Lat: -22.74 Lon: 150.66 Height: 31.0 m
Data from the previous 72 hours. | See also: Recent months at Samuel Hill
Date/Time
EST
Temp
°C
App
Temp
°C
Dew
Point
°C
Rel
Hum
%
Delta-T
°C
Wind Press
QNH
hPa
Press
MSL
hPa
Rain since
9am
mm
Dir  Spd
km/h
Gust
km/h
Spd
kts
Gust
kts
21/11:30pm 15.8 17.5 15.3 97 0.3 CALM 0 0 0 0 1018.3 1018.3 3.0
21/11:00pm 16.1 17.9 15.6 97 0.3 CALM 0 0 0 0 1018.4 1018.4 3.0
21/10:30pm 16.5 18.5 16.0 97 0.3 CALM 0 0 0 0 1018.4 1018.4 3.0
21/10:00pm 16.6 17.5 16.0 96 0.4 SSE 6 7 3 4 1018.6 1018.6 3.0
21/09:30pm 16.2 16.6 15.2 94 0.6 SSE 7 9 4 5 1018.3 1018.3 2.8
21/09:00pm 16.4 16.8 15.3 93 0.6 SSE 7 9 4 5 1018.3 1018.3 2.8
21/08:30pm 16.6 18.2 15.0 90 0.9 CALM 0 0 0 0 1018.2 1018.2 2.8
21/08:00pm 17.2 17.9 15.5 90 1.0 S 6 9 3 5 1018.4 1018.4 2.8
21/07:30pm 17.4 18.0 15.7 90 1.0 SSE 7 9 4 5 1018.2 1018.2 2.8
21/07:00pm 17.5 18.1 15.8 90 1.0 SE 7 9 4 5 1018.1 1018.1 2.8
21/06:30pm 17.7 18.5 15.9 89 1.1 SSE 6 9 3 5 1017.8 1017.8 2.8
21/06:00pm 17.8 18.5 16.0 89 1.1 SSE 7 9 4 5 1017.4 1017.4 2.8
21/05:30pm 18.1 18.7 15.9 87 1.3 SSE 7 9 4 5 1017.3 1017.3 2.8
21/05:00pm 18.4 18.8 16.2 87 1.3 SSE 9 13 5 7 1017.1 1017.1 2.8
21/04:30pm 19.1 19.6 16.5 85 1.6 SE 9 13 5 7 1016.6 1016.5 2.8
21/04:00pm 18.9 19.6 17.0 89 1.1 SSE 9 13 5 7 1017.0 1017.0 2.8
21/03:30pm 18.4 18.8 16.2 87 1.3 SSE 9 17 5 9 1017.0 1017.0 2.8
21/03:00pm 18.5 18.5 16.3 87 1.3 ESE 11 19 6 10 1017.0 1017.0 2.8
21/02:30pm 19.8 19.6 16.8 83 1.8 SE 13 20 7 11 1017.0 1017.0 2.8
21/02:27pm 19.8 19.5 16.4 81 2.0 SE 13 20 7 11 1017.1 1017.1 2.8
21/02:00pm 19.3 19.4 16.5 84 1.7 SE 11 19 6 10 1017.4 1017.4 2.8
21/01:30pm 18.7 19.2 17.4 92 0.8 SSE 11 17 6 9 1017.7 1017.7 2.8
21/01:26pm 18.5 18.5 17.3 93 0.7 SSE 13 17 7 9 1017.8 1017.8 2.8
21/01:07pm 18.3 18.3 17.1 93 0.7 SSE 13 20 7 11 1018.1 1018.1 2.8
21/01:00pm 18.3 18.1 16.8 91 0.9 SSE 13 20 7 11 1018.2 1018.2 2.4
21/12:33pm 18.0 17.9 17.0 94 0.6 SSE 13 20 7 11 1018.8 1018.8 2.4
21/12:30pm 17.9 18.1 16.8 93 0.7 SSE 11 17 6 9 1018.8 1018.8 2.4
21/12:25pm 17.7 18.0 16.9 95 0.5 SSE 11 17 6 9 1018.8 1018.8 2.4
21/12:09pm 17.4 17.2 16.6 95 0.5 SSE 13 20 7 11 1019.1 1019.1 2.4
21/12:00pm 17.4 17.5 16.4 94 0.6 SSE 11 19 6 10 1019.2 1019.2 2.4
21/11:49am 17.3 16.9 16.3 94 0.6 SE 13 19 7 10 1019.4 1019.4 2.2
21/11:41am 17.5 16.8 16.4 93 0.7 SSE 15 24 8 13 1019.5 1019.5 1.4
21/11:37am 17.7 17.1 16.6 93 0.7 SSE 15 22 8 12 1019.5 1019.5 1.2
21/11:30am 18.1 17.6 16.8 92 0.8 SSE 15 22 8 12 1019.5 1019.5 1.0
21/11:00am 17.8 17.7 17.0 95 0.5 SSE 13 20 7 11 1019.8 1019.8 1.0
21/10:47am 17.4 17.3 16.9 97 0.3 SSE 13 19 7 10 1020.0 1020.0 1.0
21/10:30am 17.1 17.2 16.6 97 0.3 SE 11 15 6 8 1020.3 1020.3 1.0
21/10:17am 17.1 16.9 16.6 97 0.3 SE 13 19 7 10 1020.4 1020.4 0.6
21/10:00am 17.5 17.9 17.2 98 0.2 S 11 19 6 10 1020.5 1020.5 0.6
21/09:30am 16.7 16.8 16.5 99 0.1 S 11 17 6 9 1020.5 1020.5 0.6
21/09:22am 16.5 16.9 16.3 99 0.1 S 9 17 5 9 1020.4 1020.4 0.6
21/09:05am 16.2 15.7 16.0 99 0.1 S 13 20 7 11 1020.5 1020.5 0.4
21/09:00am 16.2 15.7 16.0 99 0.1 S 13 20 7 11 1020.5 1020.5 3.4
21/08:30am 16.3 16.2 16.1 99 0.1 S 11 17 6 9 1020.4 1020.4 3.4
21/08:00am 16.1 16.0 15.9 99 0.1 SSE 11 19 6 10 1020.2 1020.2 3.4
21/07:30am 16.0 15.5 15.8 99 0.1 S 13 19 7 10 1019.9 1019.9 3.4
21/07:00am 15.6 15.3 15.4 99 0.1 S 11 17 6 9 1019.7 1019.7 3.2
21/06:30am 15.6 15.7 15.4 99 0.1 S 9 15 5 8 1019.8 1019.8 3.2
21/06:28am 15.7 15.8 15.5 99 0.1 SSE 9 13 5 7 1019.8 1019.8 3.2
21/06:02am 15.7 15.4 15.5 99 0.1 SSE 11 17 6 9 1019.7 1019.7 2.0
21/06:00am 15.7 15.8 15.5 99 0.1 SSE 9 15 5 8 1019.7 1019.7 1.4
21/05:30am 15.6 15.2 15.3 98 0.2 SSE 11 19 6 10 1019.4 1019.4 1.2
21/05:01am 15.5 15.4 15.0 97 0.3 S 9 17 5 9 1019.3 1019.3 1.2
21/05:00am 15.5 15.4 15.0 97 0.3 S 9 17 5 9 1019.3 1019.3 1.2
21/04:30am 15.5 15.4 14.9 96 0.3 S 9 15 5 8 1019.2 1019.2 1.2
21/04:00am 15.8 15.7 15.0 95 0.5 S 9 13 5 7 1019.2 1019.2 1.0
21/03:30am 16.3 16.0 15.5 95 0.5 S 11 17 6 9 1019.3 1019.3 1.0
21/03:00am 15.7 15.5 14.7 94 0.6 SSW 9 13 5 7 1019.3 1019.3 1.0
21/02:30am 15.1 15.2 13.8 92 0.7 SSW 6 9 3 5 1019.5 1019.5 1.0
21/02:00am 15.7 15.8 14.4 92 0.7 S 7 9 4 5 1019.5 1019.5 1.0
21/01:30am 15.8 15.9 14.5 92 0.7 WSW 7 9 4 5 1019.9 1019.9 1.0
21/01:00am 16.3 17.2 15.0 92 0.7 NNE 4 7 2 4 1020.1 1020.1 1.0
21/12:30am 16.5 17.0 14.9 90 0.9 SSW 6 9 3 5 1020.1 1020.1 0.8
21/12:00am 16.6 16.4 14.6 88 1.1 SSE 9 11 5 6 1020.4 1020.4 0.6
 
Date/Time
EST
Temp
°C
App
Temp
°C
Dew
Point
°C
Rel
Hum
%
Delta-T
°C
Wind Press
QNH
hPa
Press
MSL
hPa
Rain since
9am
mm
Dir  Spd
km/h
Gust
km/h
Spd
kts
Gust
kts
20/11:30pm 16.5 16.6 14.0 85 1.4 SSE 6 7 3 4 1020.3 1020.3 0.0
20/11:00pm 16.1 16.0 13.4 84 1.5 S 6 7 3 4 1020.3 1020.3 0.0
20/10:30pm 16.5 16.2 13.4 82 1.7 S 7 9 4 5 1020.4 1020.4 0.0
20/10:00pm 16.6 16.3 13.3 81 1.8 SSE 7 9 4 5 1020.6 1020.6 0.0
20/09:30pm 16.5 16.2 13.2 81 1.8 S 7 11 4 6 1020.8 1020.8 0.0
20/09:00pm 16.8 16.4 13.1 79 2.1 SSE 7 13 4 7 1020.8 1020.8 0.0
20/08:30pm 16.9 16.2 13.2 79 2.1 SSE 9 13 5 7 1020.7 1020.7 0.0
20/08:00pm 16.6 15.5 13.1 80 1.9 SSE 11 15 6 8 1020.6 1020.6 0.0
20/07:30pm 16.3 15.8 12.7 79 2.0 S 7 11 4 6 1020.5 1020.5 0.0
20/07:00pm 17.0 16.3 13.1 78 2.2 SSE 9 13 5 7 1020.3 1020.3 0.0
20/06:30pm 17.2 16.0 12.9 76 2.4 SSE 11 13 6 7 1020.1 1020.1 0.0
20/06:00pm 17.9 16.4 13.0 73 2.7 SE 13 17 7 9 1019.8 1019.8 0.0
20/05:30pm 18.7 16.5 13.3 71 3.1 SE 17 24 9 13 1019.7 1019.7 0.0
20/05:00pm 19.3 17.1 13.3 68 3.4 SE 17 26 9 14 1019.6 1019.6 0.0
20/04:30pm 20.1 18.0 13.6 66 3.7 SE 17 28 9 15 1019.6 1019.6 0.0
20/04:00pm 20.5 17.8 13.5 64 4.0 SE 20 30 11 16 1019.4 1019.4 0.0
20/03:30pm 21.1 18.5 13.3 61 4.5 ESE 19 33 10 18 1019.4 1019.4 0.0
20/03:00pm 21.4 18.8 13.3 60 4.6 SE 19 30 10 16 1019.4 1019.4 0.0
20/02:30pm 21.5 18.9 13.7 61 4.5 ESE 20 32 11 17 1019.7 1019.7 0.0
20/02:00pm 21.4 18.7 13.6 61 4.5 SE 20 32 11 17 1019.8 1019.8 0.0
20/01:30pm 21.3 18.7 13.2 60 4.6 ESE 19 32 10 17 1020.1 1020.1 0.0
20/01:00pm 20.7 17.7 12.4 59 4.7 SE 20 35 11 19 1020.3 1020.3 0.0
20/12:30pm 22.1 19.2 12.9 56 5.3 SE 20 32 11 17 1020.6 1020.6 0.0
20/12:00pm 21.2 17.6 11.8 55 5.2 SE 22 33 12 18 1020.9 1020.9 0.0
20/11:30am 21.8 19.2 13.2 58 4.9 SE 19 32 10 17 1021.3 1021.3 0.0
20/11:00am 20.9 17.8 12.1 57 4.9 SE 20 35 11 19 1021.6 1021.6 0.0
20/10:30am 21.3 18.0 11.6 54 5.4 SE 20 35 11 19 1021.7 1021.7 0.0
20/10:00am 21.0 18.0 12.7 59 4.7 ESE 20 39 11 21 1021.8 1021.8 0.0
20/09:30am 19.5 17.5 12.8 65 3.8 SSE 15 26 8 14 1021.7 1021.7 0.0
20/09:00am 18.2 16.5 12.6 70 3.1 SSE 13 19 7 10 1021.7 1021.7 0.0
20/08:30am 16.6 15.1 12.0 74 2.5 SSE 11 17 6 9 1021.5 1021.5 0.0
20/08:00am 14.6 13.9 11.9 84 1.5 SE 7 11 4 6 1021.2 1021.2 0.0
20/07:30am 11.9 10.8 10.6 92 0.7 SSE 7 9 4 5 1020.9 1020.9 0.0
20/07:00am 11.5 10.2 11.2 98 0.2 SSE 9 13 5 7 1020.6 1020.6 0.0
20/06:30am 9.0 7.6 8.7 98 0.1 S 6 7 3 4 1020.4 1020.4 0.0
20/06:00am 8.4 6.8 8.1 98 0.1 S 6 7 3 4 1020.1 1020.1 0.0
20/05:30am 7.8 5.9 7.5 98 0.1 SW 7 9 4 5 1019.9 1019.9 0.0
20/05:00am 6.6 4.4 6.0 96 0.3 S 7 9 4 5 1019.7 1019.7 0.0
20/04:30am 6.8 4.8 6.4 97 0.2 S 6 7 3 4 1019.6 1019.6 0.0
20/04:00am 6.2 4.4 5.6 96 0.3 S 4 7 2 4 1019.7 1019.7 0.0
20/03:30am 5.9 3.5 5.3 96 0.3 SW 7 7 4 4 1019.8 1019.8 0.0
20/03:00am 5.8 4.7 5.2 96 0.3 CALM 0 6 0 3 1019.7 1019.7 0.0
20/02:30am 5.9 3.7 5.2 95 0.3 SSW 6 7 3 4 1019.6 1019.6 0.0
20/02:00am 5.9 3.7 5.2 95 0.3 SSW 6 7 3 4 1019.8 1019.8 0.0
20/01:30am 5.9 4.5 5.3 96 0.3 SW 2 7 1 4 1020.1 1020.1 0.0
20/01:00am 5.6 4.4 4.7 94 0.4 CALM 0 0 0 0 1020.4 1020.4 0.0
20/12:30am 5.6 4.4 4.7 94 0.4 CALM 0 0 0 0 1020.5 1020.5 0.0
20/12:00am 6.0 4.9 5.3 95 0.3 CALM 0 0 0 0 1020.5 1020.5 0.0
 
Date/Time
EST
Temp
°C
App
Temp
°C
Dew
Point
°C
Rel
Hum
%
Delta-T
°C
Wind Press
QNH
hPa
Press
MSL
hPa
Rain since
9am
mm
Dir  Spd
km/h
Gust
km/h
Spd
kts
Gust
kts
19/11:30pm 5.5 4.3 4.5 93 0.4 CALM 0 0 0 0 1020.5 1020.5 0.0
19/11:00pm 5.7 4.5 4.5 92 0.5 CALM 0 0 0 0 1020.5 1020.5 0.0
19/10:30pm 6.6 5.2 5.7 94 0.4 WSW 2 9 1 5 1020.5 1020.5 0.0
19/10:00pm 6.5 5.4 5.3 92 0.5 CALM 0 0 0 0 1020.8 1020.8 0.0
19/09:30pm 6.9 5.9 5.7 92 0.5 CALM 0 0 0 0 1020.4 1020.4 0.0
19/09:00pm 6.7 5.6 5.2 90 0.7 CALM 0 6 0 3 1020.4 1020.4 0.0
19/08:30pm 7.8 6.3 6.6 92 0.6 W 4 7 2 4 1020.1 1020.1 0.0
19/08:00pm 7.5 6.6 6.0 90 0.7 CALM 0 0 0 0 1020.0 1020.0 0.0
19/07:30pm 7.6 5.8 5.2 85 1.1 S 4 6 2 3 1019.9 1019.9 0.0
19/07:00pm 8.2 7.1 5.3 82 1.3 CALM 0 0 0 0 1019.6 1019.6 0.0
19/06:30pm 9.8 8.1 5.8 76 1.8 WSW 4 7 2 4 1019.1 1019.1 0.0
19/06:00pm 11.8 11.0 6.5 70 2.5 CALM 0 0 0 0 1018.8 1018.8 0.0
19/05:30pm 15.4 13.5 6.7 56 4.3 ESE 6 7 3 4 1018.6 1018.6 0.0
19/05:00pm 17.6 15.1 6.5 48 5.5 ESE 9 15 5 8 1018.5 1018.5 0.0
19/04:30pm 18.8 14.8 4.9 40 6.7 SE 15 20 8 11 1018.5 1018.5 0.0
19/04:00pm 19.6 15.8 3.7 35 7.5 ESE 13 17 7 9 1018.3 1018.3 0.0
19/03:30pm 20.1 16.3 3.8 34 7.8 ESE 13 19 7 10 1017.9 1017.9 0.0
19/03:00pm 20.4 17.0 4.0 34 7.9 SE 11 17 6 9 1017.8 1017.8 0.0
19/02:30pm 20.6 16.9 4.6 35 7.8 ESE 13 20 7 11 1018.0 1018.0 0.0
19/02:00pm 20.9 17.3 2.7 30 8.5 SE 11 19 6 10 1018.3 1018.3 0.0
19/01:30pm 20.4 16.5 1.3 28 8.7 SSE 11 20 6 11 1018.5 1018.5 0.0
19/01:00pm 20.3 16.0 0.7 27 8.8 SE 13 24 7 13 1018.6 1018.6 0.0
19/12:30pm 20.1 15.9 1.5 29 8.5 SE 13 20 7 11 1019.0 1019.0 0.0
19/12:00pm 19.5 15.1 2.8 33 7.8 S 15 22 8 12 1019.5 1019.5 0.0
19/11:30am 19.3 15.4 3.5 35 7.4 SSE 13 22 7 12 1019.9 1019.9 0.0
19/11:00am 19.2 14.9 3.4 35 7.4 SE 15 20 8 11 1020.2 1020.2 0.0
19/10:30am 18.5 14.3 3.6 37 7.0 SE 15 22 8 12 1020.5 1020.5 0.0
19/10:00am 17.9 13.8 4.1 40 6.5 SSE 15 20 8 11 1020.7 1020.7 0.0
19/09:30am 17.2 12.6 3.8 41 6.3 S 17 24 9 13 1020.7 1020.7 0.0
19/09:00am 16.0 12.8 5.0 48 5.2 SSE 11 20 6 11 1020.4 1020.4 0.0
19/08:30am 13.3 11.6 7.7 69 2.8 SSE 6 9 3 5 1020.3 1020.3 0.0
19/08:00am 9.6 7.7 6.7 82 1.4 SSE 6 9 3 5 1020.2 1020.2 0.0
19/07:30am 6.9 4.8 6.8 99 0.0 S 7 9 4 5 1020.0 1020.0 0.0
19/07:00am 3.4 0.8 3.0 97 0.2 SSW 6 7 3 4 1019.7 1019.7 0.0
19/06:30am 2.4 -0.1 1.7 95 0.3 SSW 4 6 2 3 1019.4 1019.4 0.0
19/06:00am 2.7 1.0 2.0 95 0.3 CALM 0 0 0 0 1019.1 1019.1 0.0
19/05:30am 3.2 1.6 2.6 96 0.2 CALM 0 0 0 0 1018.8 1018.8 0.0
19/05:00am 2.8 1.1 2.1 95 0.3 CALM 0 0 0 0 1018.7 1018.7 0.0
19/04:30am 3.5 2.0 2.9 96 0.2 CALM 0 0 0 0 1018.6 1018.6 0.0
19/04:00am 3.6 2.1 3.0 96 0.2 CALM 0 0 0 0 1018.4 1018.4 0.0
19/03:30am 3.5 2.0 2.9 96 0.2 CALM 0 0 0 0 1018.4 1018.4 0.0
19/03:00am 3.4 1.8 2.7 95 0.3 CALM 0 0 0 0 1018.6 1018.6 0.0
19/02:30am 3.5 2.0 2.8 95 0.3 CALM 0 0 0 0 1018.6 1018.6 0.0
19/02:00am 3.9 2.4 3.2 95 0.3 CALM 0 0 0 0 1018.7 1018.7 0.0
19/01:30am 4.0 2.5 3.1 94 0.4 CALM 0 0 0 0 1018.7 1018.7 0.0
19/01:00am 4.4 2.3 3.7 95 0.3 SSW 4 6 2 3 1018.7 1018.7 0.0
19/12:30am 4.8 3.1 4.1 95 0.3 S 2 9 1 5 1019.0 1019.0 0.0
19/12:00am 4.7 3.0 4.0 95 0.3 SSE 2 9 1 5 1019.0 1019.0 0.0

Other formats

Comma delimited format used in spreadsheet applications
http://www.bom.gov.au/fwo/IDQ60801/IDQ60801.94370.axf

JavaScript Object Notation format (JSON) in row-major order
http://www.bom.gov.au/fwo/IDQ60801/IDQ60801.94370.json

Data quality

Most of these data are generated automatically and are frequently updated. Quality checks on data are not normally performed. It is possible for incorrect values to appear. Refer to information at About Latest Weather Observations and please check the disclaimer before using these data.